Marley — ONHT — position and weather

sailwx.info

Track history (hours):
 
Tides and Currents Weather Stations Pressure Air Temp Water Temp Dewpoint Dewpoint Depression Visibility Wind Speed Wind Dir Waves Ship Positions

Marley

Last reported at 2017-Nov-16 14:01 UTC. Time now 2017-Nov-20 00:09 UTC.
Position N 37°23' W 009°50'.

Length 91 m; draft 4.5 m.

Type: Cargo ship. MMSI: 205656000.

Date/timePositionNaut miles runAvg speedWind from/ knotsBaromVisibWave heightAir tempDewpointWater temp
2017-Nov-16 14:01N 37°23' W 009°50'0 9.3
2017-Nov-16 14:00N 37°23' W 009°50'5 9.4
2017-Nov-16 13:30N 37°28' W 009°51'6 9.7
2017-Nov-16 12:54N 37°33' W 009°52'12 9.7
2017-Nov-16 11:39N 37°45' W 009°54'110.1
2017-Nov-16 11:31N 37°47' W 009°54'6 9.9
2017-Nov-16 10:56N 37°52' W 009°55'410.1
2017-Nov-16 10:31N 37°57' W 009°56'510.0
2017-Nov-16 10:01N 38°01' W 009°57'1410.1
2017-Nov-16 08:38N 38°15' W 009°60'110.0
2017-Nov-16 08:30N 38°16' W 010°00'510.1
2017-Nov-16 08:00N 38°21' W 010°01'510.0
2017-Nov-16 07:30N 38°26' W 010°02'5 9.6
2017-Nov-16 07:00N 38°31' W 010°03'5 9.6
2017-Nov-16 06:31N 38°36' W 010°04'6 9.5
2017-Nov-16 05:52N 38°42' W 010°05'3 9.4
2017-Nov-16 05:31N 38°45' W 010°05'5 9.7
2017-Nov-16 05:01N 38°50' W 010°05'510.0
2017-Nov-16 04:31N 38°55' W 010°05'510.2
2017-Nov-16 04:00N 39°00' W 010°05'510.0
2017-Nov-16 03:30N 39°05' W 010°05'  
2017-Nov-13 21:45N 47°04' W 007°14'225 9.0
2017-Nov-12 20:46N 49°52' W 003°28'3 9.7
2017-Nov-12 20:25N 49°54' W 003°24'4 9.7
2017-Nov-12 20:01N 49°57' W 003°19'5 9.1
2017-Nov-12 19:30N 49°57' W 003°12'6 8.5
2017-Nov-12 18:50N 49°58' W 003°04'3 9.1
2017-Nov-12 18:30N 49°60' W 002°60'4 8.5
2017-Nov-12 18:00N 50°02' W 002°54'5 7.8
2017-Nov-12 17:25N 50°03' W 002°47'3 7.1
2017-Nov-12 17:00N 50°03' W 002°43'4 7.3
2017-Nov-12 16:26N 50°04' W 002°36'89 7.8
2017-Nov-12 05:03N 50°28' W 000°22'0 8.1
2017-Nov-12 05:00N 50°28' W 000°21'4 7.9
2017-Nov-12 04:31N 50°29' W 000°15'4 8.0
2017-Nov-12 04:00N 50°31' W 000°09'4 8.0
2017-Nov-12 03:31N 50°32' W 000°03'4 8.1
2017-Nov-12 03:01N 50°33' E 000°03'4 8.1
2017-Nov-12 02:30N 50°34' E 000°09'4 8.5
2017-Nov-12 02:00N 50°35' E 000°15'4 8.8
2017-Nov-12 01:30N 50°36' E 000°22'5 9.2
2017-Nov-12 01:00N 50°37' E 000°29'5 9.6
2017-Nov-12 00:30N 50°39' E 000°36'510.1
2017-Nov-12 00:00N 50°42' E 000°42'510.5
2017-Nov-11 23:30N 50°45' E 000°49'510.7
2017-Nov-11 23:00N 50°48' E 000°56'710.7
2017-Nov-11 22:21N 50°52' E 001°05'510.4
2017-Nov-11 21:54N 50°55' E 001°11'410.1
2017-Nov-11 21:30N 50°58' E 001°16'5 9.7
2017-Nov-11 21:00N 51°01' E 001°22'5 9.3
2017-Nov-11 20:30N 51°04' E 001°27'4 8.6
2017-Nov-11 20:00N 51°07' E 001°32'4 7.6
2017-Nov-11 19:31N 51°09' E 001°37'4 7.2
2017-Nov-11 19:00N 51°12' E 001°41'4 7.3
2017-Nov-11 18:30N 51°14' E 001°45'4 7.6
2017-Nov-11 18:00N 51°18' E 001°48'4 7.9
2017-Nov-11 17:30N 51°21' E 001°51'4 8.4
2017-Nov-11 17:00N 51°25' E 001°54'4 9.0
2017-Nov-11 16:30N 51°29' E 001°57'5 9.5
2017-Nov-11 16:00N 51°33' E 002°02'89 8.9
2017-Nov-11 06:02N 52°41' E 003°36'0 7.7
2017-Nov-11 06:00N 52°41' E 003°36'4 7.9
2017-Nov-11 05:30N 52°44' E 003°40'4 8.1
2017-Nov-11 04:59N 52°47' E 003°44'4 8.1
2017-Nov-11 04:29N 52°51' E 003°48'159 6.3
2017-Nov-10 03:02N 54°02' E 007°47'1 7.6
2017-Nov-10 02:52N 54°02' E 007°50'3 7.5
2017-Nov-10 02:30N 54°02' E 007°54'4 7.4
2017-Nov-10 02:00N 54°01' E 008°00'4 7.6
2017-Nov-10 01:30N 54°01' E 008°07'4 7.7
2017-Nov-10 01:00N 54°01' E 008°13'4 7.2
2017-Nov-10 00:30N 54°00' E 008°20'3 7.0
2017-Nov-10 00:00N 53°59' E 008°25'4 7.6
2017-Nov-09 23:30N 53°58' E 008°32'5 9.2
2017-Nov-09 23:00N 53°57' E 008°39'612.4
2017-Nov-09 22:30N 53°52' E 008°45'611.9
2017-Nov-09 22:00N 53°51' E 008°54'612.3
2017-Nov-09 21:30N 53°52' E 009°05'611.5
2017-Nov-09 21:00N 53°53' E 009°14'611.8
2017-Nov-09 20:30N 53°49' E 009°22'611.2
2017-Nov-09 20:00N 53°44' E 009°27'510.1
2017-Nov-09 19:30N 53°40' E 009°31'5 9.3
2017-Nov-09 19:00N 53°36' E 009°36'4 8.4
2017-Nov-09 18:30N 53°34' E 009°42'4 8.0
2017-Nov-09 18:00N 53°33' E 009°48'4 7.7
2017-Nov-09 17:31N 53°33' E 009°55'3 5.1
2017-Nov-09 17:00N 53°30' E 009°57'0 0.4
2017-Nov-09 16:30N 53°30' E 009°57'0 0.0
2017-Nov-09 15:57N 53°30' E 009°57'0 0.0
2017-Nov-09 15:30N 53°30' E 009°57'0 0.0
2017-Nov-09 15:00N 53°30' E 009°57'0 0.0
2017-Nov-09 14:30N 53°30' E 009°57'0 0.0
2017-Nov-09 13:57N 53°30' E 009°57'0 0.0
2017-Nov-09 13:30N 53°30' E 009°57'0 0.0
2017-Nov-09 13:00N 53°30' E 009°57'0 0.0
2017-Nov-09 12:30N 53°30' E 009°57'0 0.0
2017-Nov-09 12:00N 53°30' E 009°57'0 0.0
2017-Nov-09 11:30N 53°30' E 009°57'0 0.0
2017-Nov-09 11:00N 53°30' E 009°57'0 0.0
2017-Nov-09 10:30N 53°30' E 009°57'0 0.0
2017-Nov-09 10:00N 53°30' E 009°57'0 0.0
2017-Nov-09 09:30N 53°30' E 009°57'0 0.0
2017-Nov-09 09:00N 53°30' E 009°57'0 0.0
2017-Nov-09 08:27N 53°30' E 009°57'0 0.0
2017-Nov-09 07:57N 53°30' E 009°57'0 0.0
2017-Nov-09 07:27N 53°30' E 009°57'0 0.0
2017-Nov-09 07:00N 53°30' E 009°57'1 2.0
2017-Nov-09 06:30N 53°31' E 009°56'4 8.9
2017-Nov-09 06:01N 53°33' E 009°50'5 9.9
2017-Nov-09 05:30N 53°34' E 009°42'510.9
2017-Nov-09 05:00N 53°37' E 009°34'611.2
2017-Nov-09 04:30N 53°42' E 009°30'611.7
2017-Nov-09 04:00N 53°46' E 009°23'611.7
2017-Nov-09 03:30N 53°51' E 009°18'612.2
2017-Nov-09 03:00N 53°53' E 009°08'510.0
2017-Nov-09 02:30N 53°51' E 008°60'612.4
2017-Nov-09 02:00N 53°50' E 008°50'611.4
2017-Nov-09 01:30N 53°54' E 008°42'611.8
2017-Nov-09 01:00N 53°58' E 008°35'612.6
2017-Nov-09 00:30N 53°59' E 008°24'611.9
2017-Nov-09 00:00N 53°59' E 008°14'611.4
2017-Nov-08 23:30N 53°58' E 008°05'611.3
2017-Nov-08 23:00N 53°57' E 007°55'511.0
2017-Nov-08 22:30N 53°55' E 007°46'130 8.4
2017-Nov-08 07:05N 53°03' E 004°26'111.3
2017-Nov-08 06:59N 53°02' E 004°25'711.3
2017-Nov-08 06:24N 52°57' E 004°20'611.6
2017-Nov-08 05:54N 52°51' E 004°17'5410.6
2017-Nov-08 00:51N 52°07' E 003°26'612.0
2017-Nov-08 00:23N 52°02' E 003°24'8 6.8
2017-Nov-07 23:08N 51°53' E 003°22'1 8.2
2017-Nov-07 22:59N 51°52' E 003°21'5 8.3
2017-Nov-07 22:26N 51°48' E 003°18'4 8.3
2017-Nov-07 22:00N 51°45' E 003°16'4 8.7
2017-Nov-07 21:30N 51°41' E 003°19'5 9.8
2017-Nov-07 21:00N 51°37' E 003°22'5 9.8
2017-Nov-07 20:30N 51°32' E 003°26'510.4
2017-Nov-07 19:59N 51°28' E 003°31'510.8
2017-Nov-07 19:30N 51°27' E 003°39'2 4.3
2017-Nov-07 19:00N 51°28' E 003°42'0 0.0
2017-Nov-07 18:26N 51°28' E 003°42'0 0.0
2017-Nov-07 17:56N 51°28' E 003°42'0 0.0
2017-Nov-07 17:29N 51°28' E 003°42'0 0.0
2017-Nov-07 16:56N 51°28' E 003°42'0 0.0
2017-Nov-07 16:26N 51°28' E 003°42'0 0.0
2017-Nov-07 15:50N 51°28' E 003°42'0 0.0
2017-Nov-07 15:20N 51°28' E 003°42'0 0.0
2017-Nov-07 14:56N 51°28' E 003°42'0 0.0
2017-Nov-07 14:29N 51°28' E 003°42'0 0.0
2017-Nov-07 13:59N 51°28' E 003°42'0 0.0
2017-Nov-07 13:29N 51°28' E 003°42'0 0.0
2017-Nov-07 12:44N 51°28' E 003°42'0 0.0
2017-Nov-07 12:26N 51°28' E 003°42'0 0.0
2017-Nov-07 11:59N 51°28' E 003°42'0 0.0
2017-Nov-07 11:20N 51°28' E 003°42'0 0.0
2017-Nov-07 10:56N 51°28' E 003°42'0 0.0
2017-Nov-07 10:23N 51°28' E 003°42'0 0.0
2017-Nov-07 09:47N 51°28' E 003°42'0 0.0
2017-Nov-07 09:26N 51°28' E 003°42'0 0.0
2017-Nov-07 09:00N 51°28' E 003°42'0 0.0
2017-Nov-07 08:30N 51°28' E 003°42'0 0.0
2017-Nov-07 08:00N 51°28' E 003°42'0 0.0
2017-Nov-07 07:30N 51°28' E 003°42'0 0.0
2017-Nov-07 07:00N 51°28' E 003°42'0 0.0
2017-Nov-07 06:30N 51°28' E 003°42'1 2.4
2017-Nov-07 06:00N 51°27' E 003°40'3 6.7
2017-Nov-07 05:30N 51°26' E 003°36'2 4.8
2017-Nov-07 05:00N 51°25' E 003°32'2 4.4
2017-Nov-07 04:30N 51°25' E 003°28'4 7.6
2017-Nov-07 04:01N 51°24' E 003°22'5 9.3
2017-Nov-07 03:30N 51°23' E 003°15'510.9
2017-Nov-07 03:01N 51°22' E 003°07'510.8
2017-Nov-07 02:30N 51°22' E 002°58'610.9
2017-Nov-07 01:58N 51°22' E 002°49'4 8.9
2017-Nov-07 01:29N 51°22' E 002°42'510.7
2017-Nov-07 00:59N 51°22' E 002°33'510.7
2017-Nov-07 00:30N 51°21' E 002°25'510.5
2017-Nov-07 00:00N 51°18' E 002°18'5 9.6
2017-Nov-06 23:30N 51°15' E 002°12'4 8.8
2017-Nov-06 23:00N 51°13' E 002°06'4 7.9
2017-Nov-06 22:30N 51°11' E 002°00'4 7.1
2017-Nov-06 22:00N 51°09' E 001°56'3 6.7
2017-Nov-06 21:30N 51°07' E 001°51'3 6.3
2017-Nov-06 21:00N 51°06' E 001°47'3 6.3
2017-Nov-06 20:30N 51°03' E 001°43'  
Track history (hours):
 
Tides and Currents Weather Stations Pressure Air Temp Water Temp Dewpoint Dewpoint Depression Visibility Wind Speed Wind Dir Waves Ship Positions

Marley

Last reported at 2017-Nov-16 14:01 UTC. Time now 2017-Nov-20 00:09 UTC.
Position N 37°23' W 009°50'.

Length 91 m; draft 4.5 m.

Type: Cargo ship. MMSI: 205656000.

Date/timePositionNaut miles runAvg speedWind from/ knotsBaromVisibWave heightAir tempDewpointWater temp
2017-Nov-16 14:01N 37°23' W 009°50'0 9.3
2017-Nov-16 14:00N 37°23' W 009°50'5 9.4
2017-Nov-16 13:30N 37°28' W 009°51'6 9.7
2017-Nov-16 12:54N 37°33' W 009°52'12 9.7
2017-Nov-16 11:39N 37°45' W 009°54'110.1
2017-Nov-16 11:31N 37°47' W 009°54'6 9.9
2017-Nov-16 10:56N 37°52' W 009°55'410.1
2017-Nov-16 10:31N 37°57' W 009°56'510.0
2017-Nov-16 10:01N 38°01' W 009°57'1410.1
2017-Nov-16 08:38N 38°15' W 009°60'110.0
2017-Nov-16 08:30N 38°16' W 010°00'510.1
2017-Nov-16 08:00N 38°21' W 010°01'510.0
2017-Nov-16 07:30N 38°26' W 010°02'5 9.6
2017-Nov-16 07:00N 38°31' W 010°03'5 9.6
2017-Nov-16 06:31N 38°36' W 010°04'6 9.5
2017-Nov-16 05:52N 38°42' W 010°05'3 9.4
2017-Nov-16 05:31N 38°45' W 010°05'5 9.7
2017-Nov-16 05:01N 38°50' W 010°05'510.0
2017-Nov-16 04:31N 38°55' W 010°05'510.2
2017-Nov-16 04:00N 39°00' W 010°05'510.0
2017-Nov-16 03:30N 39°05' W 010°05'  
2017-Nov-13 21:45N 47°04' W 007°14'225 9.0
2017-Nov-12 20:46N 49°52' W 003°28'3 9.7
2017-Nov-12 20:25N 49°54' W 003°24'4 9.7
2017-Nov-12 20:01N 49°57' W 003°19'5 9.1
2017-Nov-12 19:30N 49°57' W 003°12'6 8.5
2017-Nov-12 18:50N 49°58' W 003°04'3 9.1
2017-Nov-12 18:30N 49°60' W 002°60'4 8.5
2017-Nov-12 18:00N 50°02' W 002°54'5 7.8
2017-Nov-12 17:25N 50°03' W 002°47'3 7.1
2017-Nov-12 17:00N 50°03' W 002°43'4 7.3
2017-Nov-12 16:26N 50°04' W 002°36'89 7.8
2017-Nov-12 05:03N 50°28' W 000°22'0 8.1
2017-Nov-12 05:00N 50°28' W 000°21'4 7.9
2017-Nov-12 04:31N 50°29' W 000°15'4 8.0
2017-Nov-12 04:00N 50°31' W 000°09'4 8.0
2017-Nov-12 03:31N 50°32' W 000°03'4 8.1
2017-Nov-12 03:01N 50°33' E 000°03'4 8.1
2017-Nov-12 02:30N 50°34' E 000°09'4 8.5
2017-Nov-12 02:00N 50°35' E 000°15'4 8.8
2017-Nov-12 01:30N 50°36' E 000°22'5 9.2
2017-Nov-12 01:00N 50°37' E 000°29'5 9.6
2017-Nov-12 00:30N 50°39' E 000°36'510.1
2017-Nov-12 00:00N 50°42' E 000°42'510.5
2017-Nov-11 23:30N 50°45' E 000°49'510.7
2017-Nov-11 23:00N 50°48' E 000°56'710.7
2017-Nov-11 22:21N 50°52' E 001°05'510.4
2017-Nov-11 21:54N 50°55' E 001°11'410.1
2017-Nov-11 21:30N 50°58' E 001°16'5 9.7
2017-Nov-11 21:00N 51°01' E 001°22'5 9.3
2017-Nov-11 20:30N 51°04' E 001°27'4 8.6
2017-Nov-11 20:00N 51°07' E 001°32'4 7.6
2017-Nov-11 19:31N 51°09' E 001°37'4 7.2
2017-Nov-11 19:00N 51°12' E 001°41'4 7.3
2017-Nov-11 18:30N 51°14' E 001°45'4 7.6
2017-Nov-11 18:00N 51°18' E 001°48'4 7.9
2017-Nov-11 17:30N 51°21' E 001°51'4 8.4
2017-Nov-11 17:00N 51°25' E 001°54'4 9.0
2017-Nov-11 16:30N 51°29' E 001°57'5 9.5
2017-Nov-11 16:00N 51°33' E 002°02'89 8.9
2017-Nov-11 06:02N 52°41' E 003°36'0 7.7
2017-Nov-11 06:00N 52°41' E 003°36'4 7.9
2017-Nov-11 05:30N 52°44' E 003°40'4 8.1
2017-Nov-11 04:59N 52°47' E 003°44'4 8.1
2017-Nov-11 04:29N 52°51' E 003°48'159 6.3
2017-Nov-10 03:02N 54°02' E 007°47'1 7.6
2017-Nov-10 02:52N 54°02' E 007°50'3 7.5
2017-Nov-10 02:30N 54°02' E 007°54'4 7.4
2017-Nov-10 02:00N 54°01' E 008°00'4 7.6
2017-Nov-10 01:30N 54°01' E 008°07'4 7.7
2017-Nov-10 01:00N 54°01' E 008°13'4 7.2
2017-Nov-10 00:30N 54°00' E 008°20'3 7.0
2017-Nov-10 00:00N 53°59' E 008°25'4 7.6
2017-Nov-09 23:30N 53°58' E 008°32'5 9.2
2017-Nov-09 23:00N 53°57' E 008°39'612.4
2017-Nov-09 22:30N 53°52' E 008°45'611.9
2017-Nov-09 22:00N 53°51' E 008°54'612.3
2017-Nov-09 21:30N 53°52' E 009°05'611.5
2017-Nov-09 21:00N 53°53' E 009°14'611.8
2017-Nov-09 20:30N 53°49' E 009°22'611.2
2017-Nov-09 20:00N 53°44' E 009°27'510.1
2017-Nov-09 19:30N 53°40' E 009°31'5 9.3
2017-Nov-09 19:00N 53°36' E 009°36'4 8.4
2017-Nov-09 18:30N 53°34' E 009°42'4 8.0
2017-Nov-09 18:00N 53°33' E 009°48'4 7.7
2017-Nov-09 17:31N 53°33' E 009°55'3 5.1
2017-Nov-09 17:00N 53°30' E 009°57'0 0.4
2017-Nov-09 16:30N 53°30' E 009°57'0 0.0
2017-Nov-09 15:57N 53°30' E 009°57'0 0.0
2017-Nov-09 15:30N 53°30' E 009°57'0 0.0
2017-Nov-09 15:00N 53°30' E 009°57'0 0.0
2017-Nov-09 14:30N 53°30' E 009°57'0 0.0
2017-Nov-09 13:57N 53°30' E 009°57'0 0.0
2017-Nov-09 13:30N 53°30' E 009°57'0 0.0
2017-Nov-09 13:00N 53°30' E 009°57'0 0.0
2017-Nov-09 12:30N 53°30' E 009°57'0 0.0
2017-Nov-09 12:00N 53°30' E 009°57'0 0.0
2017-Nov-09 11:30N 53°30' E 009°57'0 0.0
2017-Nov-09 11:00N 53°30' E 009°57'0 0.0
2017-Nov-09 10:30N 53°30' E 009°57'0 0.0
2017-Nov-09 10:00N 53°30' E 009°57'0 0.0
2017-Nov-09 09:30N 53°30' E 009°57'0 0.0
2017-Nov-09 09:00N 53°30' E 009°57'0 0.0
2017-Nov-09 08:27N 53°30' E 009°57'0 0.0
2017-Nov-09 07:57N 53°30' E 009°57'0 0.0
2017-Nov-09 07:27N 53°30' E 009°57'0 0.0
2017-Nov-09 07:00N 53°30' E 009°57'1 2.0
2017-Nov-09 06:30N 53°31' E 009°56'4 8.9
2017-Nov-09 06:01N 53°33' E 009°50'5 9.9
2017-Nov-09 05:30N 53°34' E 009°42'510.9
2017-Nov-09 05:00N 53°37' E 009°34'611.2
2017-Nov-09 04:30N 53°42' E 009°30'611.7
2017-Nov-09 04:00N 53°46' E 009°23'611.7
2017-Nov-09 03:30N 53°51' E 009°18'612.2
2017-Nov-09 03:00N 53°53' E 009°08'510.0
2017-Nov-09 02:30N 53°51' E 008°60'612.4
2017-Nov-09 02:00N 53°50' E 008°50'611.4
2017-Nov-09 01:30N 53°54' E 008°42'611.8
2017-Nov-09 01:00N 53°58' E 008°35'612.6
2017-Nov-09 00:30N 53°59' E 008°24'611.9
2017-Nov-09 00:00N 53°59' E 008°14'611.4
2017-Nov-08 23:30N 53°58' E 008°05'611.3
2017-Nov-08 23:00N 53°57' E 007°55'511.0
2017-Nov-08 22:30N 53°55' E 007°46'130 8.4
2017-Nov-08 07:05N 53°03' E 004°26'111.3
2017-Nov-08 06:59N 53°02' E 004°25'711.3
2017-Nov-08 06:24N 52°57' E 004°20'611.6
2017-Nov-08 05:54N 52°51' E 004°17'5410.6
2017-Nov-08 00:51N 52°07' E 003°26'612.0
2017-Nov-08 00:23N 52°02' E 003°24'8 6.8
2017-Nov-07 23:08N 51°53' E 003°22'1 8.2
2017-Nov-07 22:59N 51°52' E 003°21'5 8.3
2017-Nov-07 22:26N 51°48' E 003°18'4 8.3
2017-Nov-07 22:00N 51°45' E 003°16'4 8.7
2017-Nov-07 21:30N 51°41' E 003°19'5 9.8
2017-Nov-07 21:00N 51°37' E 003°22'5 9.8
2017-Nov-07 20:30N 51°32' E 003°26'510.4
2017-Nov-07 19:59N 51°28' E 003°31'510.8
2017-Nov-07 19:30N 51°27' E 003°39'2 4.3
2017-Nov-07 19:00N 51°28' E 003°42'0 0.0
2017-Nov-07 18:26N 51°28' E 003°42'0 0.0
2017-Nov-07 17:56N 51°28' E 003°42'0 0.0
2017-Nov-07 17:29N 51°28' E 003°42'0 0.0
2017-Nov-07 16:56N 51°28' E 003°42'0 0.0
2017-Nov-07 16:26N 51°28' E 003°42'0 0.0
2017-Nov-07 15:50N 51°28' E 003°42'0 0.0
2017-Nov-07 15:20N 51°28' E 003°42'0 0.0
2017-Nov-07 14:56N 51°28' E 003°42'0 0.0
2017-Nov-07 14:29N 51°28' E 003°42'0 0.0
2017-Nov-07 13:59N 51°28' E 003°42'0 0.0
2017-Nov-07 13:29N 51°28' E 003°42'0 0.0
2017-Nov-07 12:44N 51°28' E 003°42'0 0.0
2017-Nov-07 12:26N 51°28' E 003°42'0 0.0
2017-Nov-07 11:59N 51°28' E 003°42'0 0.0
2017-Nov-07 11:20N 51°28' E 003°42'0 0.0
2017-Nov-07 10:56N 51°28' E 003°42'0 0.0
2017-Nov-07 10:23N 51°28' E 003°42'0 0.0
2017-Nov-07 09:47N 51°28' E 003°42'0 0.0
2017-Nov-07 09:26N 51°28' E 003°42'0 0.0
2017-Nov-07 09:00N 51°28' E 003°42'0 0.0
2017-Nov-07 08:30N 51°28' E 003°42'0 0.0
2017-Nov-07 08:00N 51°28' E 003°42'0 0.0
2017-Nov-07 07:30N 51°28' E 003°42'0 0.0
2017-Nov-07 07:00N 51°28' E 003°42'0 0.0
2017-Nov-07 06:30N 51°28' E 003°42'1 2.4
2017-Nov-07 06:00N 51°27' E 003°40'3 6.7
2017-Nov-07 05:30N 51°26' E 003°36'2 4.8
2017-Nov-07 05:00N 51°25' E 003°32'2 4.4
2017-Nov-07 04:30N 51°25' E 003°28'4 7.6
2017-Nov-07 04:01N 51°24' E 003°22'5 9.3
2017-Nov-07 03:30N 51°23' E 003°15'510.9
2017-Nov-07 03:01N 51°22' E 003°07'510.8
2017-Nov-07 02:30N 51°22' E 002°58'610.9
2017-Nov-07 01:58N 51°22' E 002°49'4 8.9
2017-Nov-07 01:29N 51°22' E 002°42'510.7
2017-Nov-07 00:59N 51°22' E 002°33'510.7
2017-Nov-07 00:30N 51°21' E 002°25'510.5
2017-Nov-07 00:00N 51°18' E 002°18'5 9.6
2017-Nov-06 23:30N 51°15' E 002°12'4 8.8
2017-Nov-06 23:00N 51°13' E 002°06'4 7.9
2017-Nov-06 22:30N 51°11' E 002°00'4 7.1
2017-Nov-06 22:00N 51°09' E 001°56'3 6.7
2017-Nov-06 21:30N 51°07' E 001°51'3 6.3
2017-Nov-06 21:00N 51°06' E 001°47'3 6.3
2017-Nov-06 20:30N 51°03' E 001°43'  

Dump ship's entire track history